sensor_id;sensor_type;location;lat;lon;timestamp;temperature;humidity
13322;DHT22;6730;46.248;6.930;2023-04-24T00:02:19;9.80;99.90
13322;DHT22;6730;46.248;6.930;2023-04-24T00:04:44;10.00;99.90
13322;DHT22;6730;46.248;6.930;2023-04-24T00:07:11;10.30;99.90
13322;DHT22;6730;46.248;6.930;2023-04-24T00:09:37;9.90;99.90
13322;DHT22;6730;46.248;6.930;2023-04-24T00:12:02;9.40;99.90
13322;DHT22;6730;46.248;6.930;2023-04-24T00:14:31;9.60;99.90
13322;DHT22;6730;46.248;6.930;2023-04-24T00:16:57;9.80;99.90
13322;DHT22;6730;46.248;6.930;2023-04-24T00:19:22;10.10;99.90
13322;DHT22;6730;46.248;6.930;2023-04-24T00:21:48;10.20;99.90
13322;DHT22;6730;46.248;6.930;2023-04-24T00:24:17;10.40;99.90
13322;DHT22;6730;46.248;6.930;2023-04-24T00:26:43;10.50;99.90
13322;DHT22;6730;46.248;6.930;2023-04-24T00:29:09;10.60;99.90
13322;DHT22;6730;46.248;6.930;2023-04-24T00:31:35;10.50;99.90
13322;DHT22;6730;46.248;6.930;2023-04-24T00:34:01;10.50;99.90
13322;DHT22;6730;46.248;6.930;2023-04-24T00:36:27;10.50;99.90
13322;DHT22;6730;46.248;6.930;2023-04-24T00:38:54;10.50;99.90
13322;DHT22;6730;46.248;6.930;2023-04-24T00:41:20;10.50;99.90
13322;DHT22;6730;46.248;6.930;2023-04-24T00:43:46;10.30;99.90
13322;DHT22;6730;46.248;6.930;2023-04-24T00:46:12;10.20;99.90
13322;DHT22;6730;46.248;6.930;2023-04-24T00:48:39;10.20;99.90
13322;DHT22;6730;46.248;6.930;2023-04-24T00:51:05;10.20;99.90
13322;DHT22;6730;46.248;6.930;2023-04-24T00:53:31;10.30;99.90
13322;DHT22;6730;46.248;6.930;2023-04-24T00:55:57;10.40;99.90
13322;DHT22;6730;46.248;6.930;2023-04-24T00:58:24;10.50;99.90
13322;DHT22;6730;46.248;6.930;2023-04-24T01:00:50;10.60;99.90
13322;DHT22;6730;46.248;6.930;2023-04-24T01:03:22;10.70;99.90
13322;DHT22;6730;46.248;6.930;2023-04-24T01:05:50;10.70;99.90
13322;DHT22;6730;46.248;6.930;2023-04-24T01:08:16;10.70;99.90
13322;DHT22;6730;46.248;6.930;2023-04-24T01:10:43;10.70;99.90
13322;DHT22;6730;46.248;6.930;2023-04-24T01:13:10;10.60;99.90
13322;DHT22;6730;46.248;6.930;2023-04-24T01:15:36;10.50;99.90
13322;DHT22;6730;46.248;6.930;2023-04-24T01:18:02;10.60;99.90
13322;DHT22;6730;46.248;6.930;2023-04-24T01:20:28;10.60;99.90
13322;DHT22;6730;46.248;6.930;2023-04-24T01:22:55;10.50;99.90
13322;DHT22;6730;46.248;6.930;2023-04-24T01:25:26;10.50;99.90
13322;DHT22;6730;46.248;6.930;2023-04-24T01:27:52;10.20;99.90
13322;DHT22;6730;46.248;6.930;2023-04-24T01:30:18;10.00;99.90
13322;DHT22;6730;46.248;6.930;2023-04-24T01:32:44;10.00;99.90
13322;DHT22;6730;46.248;6.930;2023-04-24T01:35:10;9.90;99.90
13322;DHT22;6730;46.248;6.930;2023-04-24T01:37:36;9.90;99.90
13322;DHT22;6730;46.248;6.930;2023-04-24T01:40:06;9.90;99.90
13322;DHT22;6730;46.248;6.930;2023-04-24T01:42:32;9.80;99.90
13322;DHT22;6730;46.248;6.930;2023-04-24T01:44:59;9.90;99.90
13322;DHT22;6730;46.248;6.930;2023-04-24T01:47:25;9.60;99.90
13322;DHT22;6730;46.248;6.930;2023-04-24T01:49:51;9.60;99.90
13322;DHT22;6730;46.248;6.930;2023-04-24T01:52:18;9.80;99.90
13322;DHT22;6730;46.248;6.930;2023-04-24T01:54:44;10.00;99.90
13322;DHT22;6730;46.248;6.930;2023-04-24T01:57:10;10.10;99.90
13322;DHT22;6730;46.248;6.930;2023-04-24T01:59:36;10.10;99.90
13322;DHT22;6730;46.248;6.930;2023-04-24T02:02:05;10.20;99.90
13322;DHT22;6730;46.248;6.930;2023-04-24T02:04:31;10.20;99.90
13322;DHT22;6730;46.248;6.930;2023-04-24T02:06:57;10.20;99.90
13322;DHT22;6730;46.248;6.930;2023-04-24T02:09:22;10.20;99.90
13322;DHT22;6730;46.248;6.930;2023-04-24T02:11:48;10.10;99.90
13322;DHT22;6730;46.248;6.930;2023-04-24T02:14:14;10.10;99.90
13322;DHT22;6730;46.248;6.930;2023-04-24T02:16:39;9.60;99.90
13322;DHT22;6730;46.248;6.930;2023-04-24T02:19:05;9.10;99.90
13322;DHT22;6730;46.248;6.930;2023-04-24T02:21:31;8.50;99.90
13322;DHT22;6730;46.248;6.930;2023-04-24T02:23:57;8.40;99.90
13322;DHT22;6730;46.248;6.930;2023-04-24T02:26:23;8.70;99.90
13322;DHT22;6730;46.248;6.930;2023-04-24T02:28:49;9.10;99.90
13322;DHT22;6730;46.248;6.930;2023-04-24T02:31:14;9.40;99.90
13322;DHT22;6730;46.248;6.930;2023-04-24T02:33:40;9.10;99.90
13322;DHT22;6730;46.248;6.930;2023-04-24T02:36:06;8.70;99.90
13322;DHT22;6730;46.248;6.930;2023-04-24T02:38:32;8.90;99.90
13322;DHT22;6730;46.248;6.930;2023-04-24T02:40:58;9.20;99.90
13322;DHT22;6730;46.248;6.930;2023-04-24T02:43:23;8.90;99.90
13322;DHT22;6730;46.248;6.930;2023-04-24T02:45:49;8.30;99.90
13322;DHT22;6730;46.248;6.930;2023-04-24T02:48:15;8.10;99.90
13322;DHT22;6730;46.248;6.930;2023-04-24T02:50:40;8.40;99.90
13322;DHT22;6730;46.248;6.930;2023-04-24T02:53:06;9.00;99.90
13322;DHT22;6730;46.248;6.930;2023-04-24T02:55:32;9.40;99.90
13322;DHT22;6730;46.248;6.930;2023-04-24T02:57:58;9.50;99.90
13322;DHT22;6730;46.248;6.930;2023-04-24T03:00:23;9.50;99.90
13322;DHT22;6730;46.248;6.930;2023-04-24T03:02:49;9.40;99.90
13322;DHT22;6730;46.248;6.930;2023-04-24T03:05:15;8.80;99.90
13322;DHT22;6730;46.248;6.930;2023-04-24T03:07:41;8.40;99.90
13322;DHT22;6730;46.248;6.930;2023-04-24T03:10:07;8.80;99.90
13322;DHT22;6730;46.248;6.930;2023-04-24T03:12:33;9.20;99.90
13322;DHT22;6730;46.248;6.930;2023-04-24T03:14:58;9.40;99.90
13322;DHT22;6730;46.248;6.930;2023-04-24T03:17:24;9.60;99.90
13322;DHT22;6730;46.248;6.930;2023-04-24T03:19:50;9.80;99.90
13322;DHT22;6730;46.248;6.930;2023-04-24T03:22:16;9.90;99.90
13322;DHT22;6730;46.248;6.930;2023-04-24T03:24:41;9.90;99.90
13322;DHT22;6730;46.248;6.930;2023-04-24T03:27:07;10.00;99.90
13322;DHT22;6730;46.248;6.930;2023-04-24T03:29:33;9.90;99.90
13322;DHT22;6730;46.248;6.930;2023-04-24T03:31:58;9.80;99.90
13322;DHT22;6730;46.248;6.930;2023-04-24T03:34:24;9.90;99.90
13322;DHT22;6730;46.248;6.930;2023-04-24T03:36:50;10.00;99.90
13322;DHT22;6730;46.248;6.930;2023-04-24T03:39:15;10.00;99.90
13322;DHT22;6730;46.248;6.930;2023-04-24T03:41:41;9.80;99.90
13322;DHT22;6730;46.248;6.930;2023-04-24T03:44:07;9.60;99.90
13322;DHT22;6730;46.248;6.930;2023-04-24T03:46:32;9.20;99.90
13322;DHT22;6730;46.248;6.930;2023-04-24T03:48:58;9.20;99.90
13322;DHT22;6730;46.248;6.930;2023-04-24T03:51:24;9.20;99.90
13322;DHT22;6730;46.248;6.930;2023-04-24T03:53:49;9.20;99.90
13322;DHT22;6730;46.248;6.930;2023-04-24T03:56:15;9.30;99.90
13322;DHT22;6730;46.248;6.930;2023-04-24T03:58:41;9.40;99.90
13322;DHT22;6730;46.248;6.930;2023-04-24T04:01:06;9.40;99.90
13322;DHT22;6730;46.248;6.930;2023-04-24T04:03:32;9.30;99.90
13322;DHT22;6730;46.248;6.930;2023-04-24T04:05:58;9.30;99.90
13322;DHT22;6730;46.248;6.930;2023-04-24T04:08:24;9.20;99.90
13322;DHT22;6730;46.248;6.930;2023-04-24T04:10:50;9.00;99.90
13322;DHT22;6730;46.248;6.930;2023-04-24T04:13:16;9.00;99.90
13322;DHT22;6730;46.248;6.930;2023-04-24T04:15:41;8.90;99.90
13322;DHT22;6730;46.248;6.930;2023-04-24T04:18:07;8.90;99.90
13322;DHT22;6730;46.248;6.930;2023-04-24T04:20:33;8.80;99.90
13322;DHT22;6730;46.248;6.930;2023-04-24T04:23:00;8.80;99.90
13322;DHT22;6730;46.248;6.930;2023-04-24T04:25:26;8.80;99.90
13322;DHT22;6730;46.248;6.930;2023-04-24T04:27:52;8.90;99.90
13322;DHT22;6730;46.248;6.930;2023-04-24T04:30:18;8.80;99.90
13322;DHT22;6730;46.248;6.930;2023-04-24T04:32:44;8.70;99.90
13322;DHT22;6730;46.248;6.930;2023-04-24T04:35:09;8.70;99.90
13322;DHT22;6730;46.248;6.930;2023-04-24T04:37:36;8.70;99.90
13322;DHT22;6730;46.248;6.930;2023-04-24T04:40:03;8.80;99.90
13322;DHT22;6730;46.248;6.930;2023-04-24T04:42:33;8.70;99.90
13322;DHT22;6730;46.248;6.930;2023-04-24T04:45:08;8.70;99.90
13322;DHT22;6730;46.248;6.930;2023-04-24T04:47:34;8.90;99.90
13322;DHT22;6730;46.248;6.930;2023-04-24T04:50:00;9.00;99.90
13322;DHT22;6730;46.248;6.930;2023-04-24T04:52:26;9.10;99.90
13322;DHT22;6730;46.248;6.930;2023-04-24T04:54:52;9.10;99.90
13322;DHT22;6730;46.248;6.930;2023-04-24T04:57:18;9.10;99.90
13322;DHT22;6730;46.248;6.930;2023-04-24T04:59:44;8.70;99.90
13322;DHT22;6730;46.248;6.930;2023-04-24T05:02:10;8.20;99.90
13322;DHT22;6730;46.248;6.930;2023-04-24T05:04:35;8.10;99.90
13322;DHT22;6730;46.248;6.930;2023-04-24T05:07:01;8.00;99.90
13322;DHT22;6730;46.248;6.930;2023-04-24T05:09:27;7.90;99.90
13322;DHT22;6730;46.248;6.930;2023-04-24T05:11:55;8.00;99.90
13322;DHT22;6730;46.248;6.930;2023-04-24T05:14:20;7.60;99.90
13322;DHT22;6730;46.248;6.930;2023-04-24T05:16:47;7.70;99.90
13322;DHT22;6730;46.248;6.930;2023-04-24T05:19:13;8.00;99.90
13322;DHT22;6730;46.248;6.930;2023-04-24T05:21:40;8.30;99.90
13322;DHT22;6730;46.248;6.930;2023-04-24T05:24:06;8.50;99.90
13322;DHT22;6730;46.248;6.930;2023-04-24T05:26:32;8.60;99.90
13322;DHT22;6730;46.248;6.930;2023-04-24T05:28:58;8.50;99.90
13322;DHT22;6730;46.248;6.930;2023-04-24T05:31:23;8.30;99.90
13322;DHT22;6730;46.248;6.930;2023-04-24T05:33:49;8.20;99.90
13322;DHT22;6730;46.248;6.930;2023-04-24T05:36:15;8.30;99.90
13322;DHT22;6730;46.248;6.930;2023-04-24T05:38:40;7.90;99.90
13322;DHT22;6730;46.248;6.930;2023-04-24T05:41:06;7.70;99.90
13322;DHT22;6730;46.248;6.930;2023-04-24T05:43:32;7.90;99.90
13322;DHT22;6730;46.248;6.930;2023-04-24T05:45:57;8.10;99.90
13322;DHT22;6730;46.248;6.930;2023-04-24T05:48:23;8.10;99.90
13322;DHT22;6730;46.248;6.930;2023-04-24T05:50:49;7.90;99.90
13322;DHT22;6730;46.248;6.930;2023-04-24T05:53:14;8.00;99.90
13322;DHT22;6730;46.248;6.930;2023-04-24T05:55:40;8.20;99.90
13322;DHT22;6730;46.248;6.930;2023-04-24T05:58:06;8.10;99.90
13322;DHT22;6730;46.248;6.930;2023-04-24T06:00:32;7.80;99.90
13322;DHT22;6730;46.248;6.930;2023-04-24T06:02:59;7.60;99.90
13322;DHT22;6730;46.248;6.930;2023-04-24T06:05:25;7.60;99.90
13322;DHT22;6730;46.248;6.930;2023-04-24T06:07:51;7.70;99.90
13322;DHT22;6730;46.248;6.930;2023-04-24T06:10:17;7.80;99.90
13322;DHT22;6730;46.248;6.930;2023-04-24T06:12:42;7.90;99.90
13322;DHT22;6730;46.248;6.930;2023-04-24T06:15:08;8.10;99.90
13322;DHT22;6730;46.248;6.930;2023-04-24T06:17:34;8.70;99.90
13322;DHT22;6730;46.248;6.930;2023-04-24T06:20:00;9.00;99.90
13322;DHT22;6730;46.248;6.930;2023-04-24T06:22:25;9.00;99.90
13322;DHT22;6730;46.248;6.930;2023-04-24T06:24:51;8.70;99.90
13322;DHT22;6730;46.248;6.930;2023-04-24T06:27:17;8.30;99.90
13322;DHT22;6730;46.248;6.930;2023-04-24T06:29:42;8.20;99.90
13322;DHT22;6730;46.248;6.930;2023-04-24T06:32:08;7.90;99.90
13322;DHT22;6730;46.248;6.930;2023-04-24T06:34:34;7.90;99.90
13322;DHT22;6730;46.248;6.930;2023-04-24T06:37:02;7.90;99.90
13322;DHT22;6730;46.248;6.930;2023-04-24T06:39:27;8.10;99.90
13322;DHT22;6730;46.248;6.930;2023-04-24T06:41:53;8.20;99.90
13322;DHT22;6730;46.248;6.930;2023-04-24T06:44:19;8.40;99.90
13322;DHT22;6730;46.248;6.930;2023-04-24T06:46:44;8.40;99.90
13322;DHT22;6730;46.248;6.930;2023-04-24T06:49:10;8.40;99.90
13322;DHT22;6730;46.248;6.930;2023-04-24T06:51:36;8.40;99.90
13322;DHT22;6730;46.248;6.930;2023-04-24T06:54:02;8.40;99.90
13322;DHT22;6730;46.248;6.930;2023-04-24T06:56:27;8.40;99.90
13322;DHT22;6730;46.248;6.930;2023-04-24T06:58:54;8.50;99.90
13322;DHT22;6730;46.248;6.930;2023-04-24T07:01:20;8.50;99.90
13322;DHT22;6730;46.248;6.930;2023-04-24T07:03:46;8.50;99.90
13322;DHT22;6730;46.248;6.930;2023-04-24T07:06:11;8.60;99.90
13322;DHT22;6730;46.248;6.930;2023-04-24T07:08:38;8.60;99.90
13322;DHT22;6730;46.248;6.930;2023-04-24T07:11:04;8.30;99.90
13322;DHT22;6730;46.248;6.930;2023-04-24T07:13:29;7.90;99.90
13322;DHT22;6730;46.248;6.930;2023-04-24T07:15:55;7.70;99.90
13322;DHT22;6730;46.248;6.930;2023-04-24T07:18:22;7.70;99.90
13322;DHT22;6730;46.248;6.930;2023-04-24T07:20:48;7.60;99.90
13322;DHT22;6730;46.248;6.930;2023-04-24T07:23:15;7.90;99.90
13322;DHT22;6730;46.248;6.930;2023-04-24T07:25:41;8.20;99.90
13322;DHT22;6730;46.248;6.930;2023-04-24T07:28:07;8.40;99.90
13322;DHT22;6730;46.248;6.930;2023-04-24T07:30:33;8.30;99.90
13322;DHT22;6730;46.248;6.930;2023-04-24T07:32:59;8.30;99.90
13322;DHT22;6730;46.248;6.930;2023-04-24T07:35:26;8.30;99.90
13322;DHT22;6730;46.248;6.930;2023-04-24T07:37:53;8.20;99.90
13322;DHT22;6730;46.248;6.930;2023-04-24T07:40:19;8.20;99.90
13322;DHT22;6730;46.248;6.930;2023-04-24T07:42:45;8.50;99.90
13322;DHT22;6730;46.248;6.930;2023-04-24T07:45:13;8.50;99.90
13322;DHT22;6730;46.248;6.930;2023-04-24T07:47:41;8.40;99.90
13322;DHT22;6730;46.248;6.930;2023-04-24T07:50:09;8.50;99.90
13322;DHT22;6730;46.248;6.930;2023-04-24T07:52:35;8.50;99.90
13322;DHT22;6730;46.248;6.930;2023-04-24T07:55:01;8.60;99.90
13322;DHT22;6730;46.248;6.930;2023-04-24T07:57:28;8.70;99.90
13322;DHT22;6730;46.248;6.930;2023-04-24T07:59:53;9.30;99.90
13322;DHT22;6730;46.248;6.930;2023-04-24T08:02:19;9.50;99.90
13322;DHT22;6730;46.248;6.930;2023-04-24T08:04:47;9.60;99.90
13322;DHT22;6730;46.248;6.930;2023-04-24T08:07:12;9.60;99.90
13322;DHT22;6730;46.248;6.930;2023-04-24T08:09:38;9.50;99.90
13322;DHT22;6730;46.248;6.930;2023-04-24T08:12:04;9.40;99.90
13322;DHT22;6730;46.248;6.930;2023-04-24T08:14:30;9.20;99.90
13322;DHT22;6730;46.248;6.930;2023-04-24T08:16:55;9.10;99.90
13322;DHT22;6730;46.248;6.930;2023-04-24T08:19:21;9.10;99.90
13322;DHT22;6730;46.248;6.930;2023-04-24T08:21:47;9.10;99.90
13322;DHT22;6730;46.248;6.930;2023-04-24T08:24:13;9.00;99.90
13322;DHT22;6730;46.248;6.930;2023-04-24T08:26:39;9.10;99.90
13322;DHT22;6730;46.248;6.930;2023-04-24T08:29:05;9.20;99.90
13322;DHT22;6730;46.248;6.930;2023-04-24T08:31:32;9.30;99.90
13322;DHT22;6730;46.248;6.930;2023-04-24T08:33:57;9.40;99.90
13322;DHT22;6730;46.248;6.930;2023-04-24T08:36:24;9.10;99.90
13322;DHT22;6730;46.248;6.930;2023-04-24T08:38:49;8.60;99.90
13322;DHT22;6730;46.248;6.930;2023-04-24T08:41:15;8.30;99.90
13322;DHT22;6730;46.248;6.930;2023-04-24T08:43:43;8.40;99.90
13322;DHT22;6730;46.248;6.930;2023-04-24T08:46:09;8.70;99.90
13322;DHT22;6730;46.248;6.930;2023-04-24T08:48:36;9.10;99.90
13322;DHT22;6730;46.248;6.930;2023-04-24T08:51:02;9.30;99.90
13322;DHT22;6730;46.248;6.930;2023-04-24T08:53:32;9.80;99.90
13322;DHT22;6730;46.248;6.930;2023-04-24T08:55:58;10.40;99.90
13322;DHT22;6730;46.248;6.930;2023-04-24T08:58:27;11.60;99.90
13322;DHT22;6730;46.248;6.930;2023-04-24T09:00:57;11.80;99.90
13322;DHT22;6730;46.248;6.930;2023-04-24T09:03:24;11.70;99.90
13322;DHT22;6730;46.248;6.930;2023-04-24T09:05:50;11.70;99.90
13322;DHT22;6730;46.248;6.930;2023-04-24T09:08:19;11.30;99.90
13322;DHT22;6730;46.248;6.930;2023-04-24T09:10:46;10.90;99.90
13322;DHT22;6730;46.248;6.930;2023-04-24T09:13:12;10.90;99.90
13322;DHT22;6730;46.248;6.930;2023-04-24T09:15:39;10.60;99.90
13322;DHT22;6730;46.248;6.930;2023-04-24T09:18:06;10.50;99.90
13322;DHT22;6730;46.248;6.930;2023-04-24T09:20:32;10.50;99.90
13322;DHT22;6730;46.248;6.930;2023-04-24T09:22:59;10.50;99.90
13322;DHT22;6730;46.248;6.930;2023-04-24T09:25:34;10.50;99.90
13322;DHT22;6730;46.248;6.930;2023-04-24T09:28:04;10.60;99.90
13322;DHT22;6730;46.248;6.930;2023-04-24T09:30:32;10.50;99.90
13322;DHT22;6730;46.248;6.930;2023-04-24T09:33:12;10.70;99.90
13322;DHT22;6730;46.248;6.930;2023-04-24T09:35:50;10.70;99.90
13322;DHT22;6730;46.248;6.930;2023-04-24T09:38:16;10.70;99.90
13322;DHT22;6730;46.248;6.930;2023-04-24T09:40:42;10.90;99.90
13322;DHT22;6730;46.248;6.930;2023-04-24T09:43:11;11.30;99.90
13322;DHT22;6730;46.248;6.930;2023-04-24T09:45:40;11.30;99.90
13322;DHT22;6730;46.248;6.930;2023-04-24T09:48:09;11.20;99.90
13322;DHT22;6730;46.248;6.930;2023-04-24T09:50:35;11.30;99.90
13322;DHT22;6730;46.248;6.930;2023-04-24T09:53:05;11.40;99.90
13322;DHT22;6730;46.248;6.930;2023-04-24T09:55:39;11.10;99.90
13322;DHT22;6730;46.248;6.930;2023-04-24T09:58:08;11.10;99.90
13322;DHT22;6730;46.248;6.930;2023-04-24T10:00:34;11.00;99.90
13322;DHT22;6730;46.248;6.930;2023-04-24T10:03:03;10.80;99.90
13322;DHT22;6730;46.248;6.930;2023-04-24T10:05:36;10.90;99.90
13322;DHT22;6730;46.248;6.930;2023-04-24T10:08:08;11.10;99.90
13322;DHT22;6730;46.248;6.930;2023-04-24T10:10:38;11.20;99.90
13322;DHT22;6730;46.248;6.930;2023-04-24T10:13:04;11.10;99.90
13322;DHT22;6730;46.248;6.930;2023-04-24T10:15:30;11.20;99.90
13322;DHT22;6730;46.248;6.930;2023-04-24T10:17:58;11.20;99.90
13322;DHT22;6730;46.248;6.930;2023-04-24T10:20:29;11.00;99.90
13322;DHT22;6730;46.248;6.930;2023-04-24T10:22:59;11.10;99.90
13322;DHT22;6730;46.248;6.930;2023-04-24T10:25:27;11.20;99.90
13322;DHT22;6730;46.248;6.930;2023-04-24T10:27:54;11.30;99.90
13322;DHT22;6730;46.248;6.930;2023-04-24T10:30:32;11.60;99.90
13322;DHT22;6730;46.248;6.930;2023-04-24T10:33:06;11.40;99.90
13322;DHT22;6730;46.248;6.930;2023-04-24T10:35:35;11.30;99.90
13322;DHT22;6730;46.248;6.930;2023-04-24T10:38:05;12.00;99.90
13322;DHT22;6730;46.248;6.930;2023-04-24T10:40:32;12.40;99.90
13322;DHT22;6730;46.248;6.930;2023-04-24T10:42:59;12.60;99.90
13322;DHT22;6730;46.248;6.930;2023-04-24T10:45:25;12.60;99.90
13322;DHT22;6730;46.248;6.930;2023-04-24T10:48:02;12.10;99.90
13322;DHT22;6730;46.248;6.930;2023-04-24T10:50:52;11.70;99.90
13322;DHT22;6730;46.248;6.930;2023-04-24T10:53:22;11.60;99.90
13322;DHT22;6730;46.248;6.930;2023-04-24T10:56:08;11.70;99.90
13322;DHT22;6730;46.248;6.930;2023-04-24T10:58:43;11.80;99.90
13322;DHT22;6730;46.248;6.930;2023-04-24T11:03:55;11.60;99.90
13322;DHT22;6730;46.248;6.930;2023-04-24T11:06:34;11.60;99.90
13322;DHT22;6730;46.248;6.930;2023-04-24T11:09:09;12.00;99.90
13322;DHT22;6730;46.248;6.930;2023-04-24T11:11:42;12.00;99.90
13322;DHT22;6730;46.248;6.930;2023-04-24T11:14:09;12.00;99.90
13322;DHT22;6730;46.248;6.930;2023-04-24T11:16:45;11.80;99.90
13322;DHT22;6730;46.248;6.930;2023-04-24T11:21:48;12.00;99.90
13322;DHT22;6730;46.248;6.930;2023-04-24T11:29:40;11.90;99.90
13322;DHT22;6730;46.248;6.930;2023-04-24T11:37:26;11.80;99.90
13322;DHT22;6730;46.248;6.930;2023-04-24T11:39:57;12.10;99.90
13322;DHT22;6730;46.248;6.930;2023-04-24T11:42:24;12.30;99.90
13322;DHT22;6730;46.248;6.930;2023-04-24T11:44:52;12.30;99.90
13322;DHT22;6730;46.248;6.930;2023-04-24T11:47:18;12.40;99.90
13322;DHT22;6730;46.248;6.930;2023-04-24T11:49:44;12.40;99.90
13322;DHT22;6730;46.248;6.930;2023-04-24T11:52:09;12.20;99.90
13322;DHT22;6730;46.248;6.930;2023-04-24T11:54:46;12.10;99.90
13322;DHT22;6730;46.248;6.930;2023-04-24T11:57:11;12.10;99.90
13322;DHT22;6730;46.248;6.930;2023-04-24T11:59:37;12.20;99.90
13322;DHT22;6730;46.248;6.930;2023-04-24T12:02:05;12.30;99.90
13322;DHT22;6730;46.248;6.930;2023-04-24T12:04:40;12.10;99.90
13322;DHT22;6730;46.248;6.930;2023-04-24T12:07:07;12.20;99.90
13322;DHT22;6730;46.248;6.930;2023-04-24T12:09:43;12.50;99.90
13322;DHT22;6730;46.248;6.930;2023-04-24T12:12:09;12.60;99.90
13322;DHT22;6730;46.248;6.930;2023-04-24T12:14:47;12.50;99.90
13322;DHT22;6730;46.248;6.930;2023-04-24T12:17:14;12.50;99.90
13322;DHT22;6730;46.248;6.930;2023-04-24T12:19:45;12.40;99.90
13322;DHT22;6730;46.248;6.930;2023-04-24T12:22:11;12.30;99.90
13322;DHT22;6730;46.248;6.930;2023-04-24T12:24:56;12.40;99.90
13322;DHT22;6730;46.248;6.930;2023-04-24T12:27:22;12.60;99.90
13322;DHT22;6730;46.248;6.930;2023-04-24T12:29:58;12.50;99.90
13322;DHT22;6730;46.248;6.930;2023-04-24T12:32:24;12.30;99.90
13322;DHT22;6730;46.248;6.930;2023-04-24T12:34:51;12.20;99.90
13322;DHT22;6730;46.248;6.930;2023-04-24T12:37:17;12.20;99.90
13322;DHT22;6730;46.248;6.930;2023-04-24T12:40:06;12.40;99.90
13322;DHT22;6730;46.248;6.930;2023-04-24T12:42:32;12.50;99.90
13322;DHT22;6730;46.248;6.930;2023-04-24T12:45:03;12.40;99.90
13322;DHT22;6730;46.248;6.930;2023-04-24T12:47:30;12.40;99.90
13322;DHT22;6730;46.248;6.930;2023-04-24T12:49:55;12.60;99.90
13322;DHT22;6730;46.248;6.930;2023-04-24T12:52:28;12.30;99.90
13322;DHT22;6730;46.248;6.930;2023-04-24T12:54:56;12.20;99.90
13322;DHT22;6730;46.248;6.930;2023-04-24T12:57:22;12.30;99.90
13322;DHT22;6730;46.248;6.930;2023-04-24T12:59:48;12.20;99.90
13322;DHT22;6730;46.248;6.930;2023-04-24T13:02:14;12.10;99.90
13322;DHT22;6730;46.248;6.930;2023-04-24T13:04:44;12.30;99.90
13322;DHT22;6730;46.248;6.930;2023-04-24T13:07:10;12.40;99.90
13322;DHT22;6730;46.248;6.930;2023-04-24T13:09:36;12.40;99.90
13322;DHT22;6730;46.248;6.930;2023-04-24T13:12:02;12.10;99.90
13322;DHT22;6730;46.248;6.930;2023-04-24T13:14:27;12.20;99.90
13322;DHT22;6730;46.248;6.930;2023-04-24T13:16:53;12.30;99.90
13322;DHT22;6730;46.248;6.930;2023-04-24T13:19:19;12.40;99.90
13322;DHT22;6730;46.248;6.930;2023-04-24T13:21:44;12.50;99.90
13322;DHT22;6730;46.248;6.930;2023-04-24T13:24:10;12.50;99.90
13322;DHT22;6730;46.248;6.930;2023-04-24T13:26:36;12.50;99.90
13322;DHT22;6730;46.248;6.930;2023-04-24T13:29:02;12.30;99.90
13322;DHT22;6730;46.248;6.930;2023-04-24T13:31:29;12.30;99.90
13322;DHT22;6730;46.248;6.930;2023-04-24T13:33:54;12.40;99.90
13322;DHT22;6730;46.248;6.930;2023-04-24T13:36:20;12.30;99.90
13322;DHT22;6730;46.248;6.930;2023-04-24T13:38:46;12.40;99.90
13322;DHT22;6730;46.248;6.930;2023-04-24T13:41:12;12.40;99.90
13322;DHT22;6730;46.248;6.930;2023-04-24T13:43:37;12.30;99.90
13322;DHT22;6730;46.248;6.930;2023-04-24T13:46:03;12.30;99.90
13322;DHT22;6730;46.248;6.930;2023-04-24T13:48:29;12.30;99.90
13322;DHT22;6730;46.248;6.930;2023-04-24T13:50:55;12.40;99.90
13322;DHT22;6730;46.248;6.930;2023-04-24T13:53:21;12.20;99.90
13322;DHT22;6730;46.248;6.930;2023-04-24T13:55:47;12.20;99.90
13322;DHT22;6730;46.248;6.930;2023-04-24T13:58:13;12.40;99.90
13322;DHT22;6730;46.248;6.930;2023-04-24T14:00:40;12.60;99.90
13322;DHT22;6730;46.248;6.930;2023-04-24T14:03:06;12.80;99.90
13322;DHT22;6730;46.248;6.930;2023-04-24T14:05:31;12.70;99.90
13322;DHT22;6730;46.248;6.930;2023-04-24T14:07:57;12.80;99.90
13322;DHT22;6730;46.248;6.930;2023-04-24T14:10:23;12.70;99.90
13322;DHT22;6730;46.248;6.930;2023-04-24T14:12:49;12.60;99.90
13322;DHT22;6730;46.248;6.930;2023-04-24T14:15:15;12.50;99.90
13322;DHT22;6730;46.248;6.930;2023-04-24T14:17:42;12.50;99.90
13322;DHT22;6730;46.248;6.930;2023-04-24T14:20:08;12.30;99.90
13322;DHT22;6730;46.248;6.930;2023-04-24T14:22:34;11.80;99.90
13322;DHT22;6730;46.248;6.930;2023-04-24T14:25:00;11.70;99.90
13322;DHT22;6730;46.248;6.930;2023-04-24T14:27:26;11.90;99.90
13322;DHT22;6730;46.248;6.930;2023-04-24T14:29:52;11.80;99.90
13322;DHT22;6730;46.248;6.930;2023-04-24T14:32:18;11.60;99.90
13322;DHT22;6730;46.248;6.930;2023-04-24T14:34:47;11.70;99.90
13322;DHT22;6730;46.248;6.930;2023-04-24T14:37:12;11.50;99.90
13322;DHT22;6730;46.248;6.930;2023-04-24T14:39:38;11.50;99.90
13322;DHT22;6730;46.248;6.930;2023-04-24T14:42:04;11.40;99.90
13322;DHT22;6730;46.248;6.930;2023-04-24T14:44:29;11.60;99.90
13322;DHT22;6730;46.248;6.930;2023-04-24T14:46:55;11.80;99.90
13322;DHT22;6730;46.248;6.930;2023-04-24T14:49:21;12.00;99.90
13322;DHT22;6730;46.248;6.930;2023-04-24T14:51:46;11.90;99.90
13322;DHT22;6730;46.248;6.930;2023-04-24T14:54:13;11.90;99.90
13322;DHT22;6730;46.248;6.930;2023-04-24T14:56:38;12.20;99.90
13322;DHT22;6730;46.248;6.930;2023-04-24T14:59:06;12.30;99.90
13322;DHT22;6730;46.248;6.930;2023-04-24T15:01:32;12.40;99.90
13322;DHT22;6730;46.248;6.930;2023-04-24T15:03:58;11.90;99.90
13322;DHT22;6730;46.248;6.930;2023-04-24T15:06:24;11.80;99.90
13322;DHT22;6730;46.248;6.930;2023-04-24T15:08:53;11.80;99.90
13322;DHT22;6730;46.248;6.930;2023-04-24T15:11:19;12.00;99.90
13322;DHT22;6730;46.248;6.930;2023-04-24T15:13:45;12.10;99.90
13322;DHT22;6730;46.248;6.930;2023-04-24T15:16:11;12.30;99.90
13322;DHT22;6730;46.248;6.930;2023-04-24T15:18:37;12.50;99.90
13322;DHT22;6730;46.248;6.930;2023-04-24T15:21:02;12.50;99.90
13322;DHT22;6730;46.248;6.930;2023-04-24T15:23:28;12.70;99.90
13322;DHT22;6730;46.248;6.930;2023-04-24T15:25:54;12.60;99.90
13322;DHT22;6730;46.248;6.930;2023-04-24T15:28:20;12.50;99.90
13322;DHT22;6730;46.248;6.930;2023-04-24T15:30:47;12.30;99.90
13322;DHT22;6730;46.248;6.930;2023-04-24T15:33:13;12.30;99.90
13322;DHT22;6730;46.248;6.930;2023-04-24T15:35:38;12.20;99.90
13322;DHT22;6730;46.248;6.930;2023-04-24T15:38:05;12.20;99.90
13322;DHT22;6730;46.248;6.930;2023-04-24T15:40:31;12.10;99.90
13322;DHT22;6730;46.248;6.930;2023-04-24T15:42:56;12.10;99.90
13322;DHT22;6730;46.248;6.930;2023-04-24T15:45:22;12.00;99.90
13322;DHT22;6730;46.248;6.930;2023-04-24T15:47:48;11.60;99.90
13322;DHT22;6730;46.248;6.930;2023-04-24T15:50:15;11.50;99.90
13322;DHT22;6730;46.248;6.930;2023-04-24T15:52:42;11.50;99.90
13322;DHT22;6730;46.248;6.930;2023-04-24T15:55:08;11.80;99.90
13322;DHT22;6730;46.248;6.930;2023-04-24T15:57:35;12.30;99.90
13322;DHT22;6730;46.248;6.930;2023-04-24T16:00:01;12.50;99.90
13322;DHT22;6730;46.248;6.930;2023-04-24T16:02:28;12.50;99.90
13322;DHT22;6730;46.248;6.930;2023-04-24T16:04:53;12.70;99.90
13322;DHT22;6730;46.248;6.930;2023-04-24T16:07:19;12.70;99.90